Airfield :
LOGIN :

Register | Disclaimer

   EN    FR    IT 

 










Legend :    VFR   Marginal VFR   IFR   Intensive IFR   Very Intensive IFR
Visi :
Ceiling :
>= 8 km
>= 3000ft
5 to 8 km
1000 to 3000 ft
1500m to 5 km
500 to 1000 ft
800 to 1500m
200 to 500 ft
< 800m
< 200 ft
Symbols :   Thunderstorms  Fog  Heavy snow  Heavy precipitations  Wind > 20 kt
SIGMETs :     Misc.  Thunderstorms  Icing  Turbulence  Mountain Waves  Volcanic Ashes






- Airport Elevation : 1079 ft


ETIK - Illesheim Air Base

CURRENT METAR :
  • 171211Z AUTO 00000KT 5000 -SN BR OVC018 M02/M02 A3006 RMK AO2 SLP204 $

EXPIRED METARs :
  • 171156Z AUTO 00000KT 3600 -SN BR OVC018 M02/M02 A3006 RMK AO2 VIS 3200V4000 SLP204 P0001 60001 70001 T10221022 11022 21037 51007 $
  • 171056Z AUTO 00000KT 3600 -SN BR OVC020 M03/M03 A3006 RMK AO2 SLP204 P0000 T10261026 $
  • 170956Z AUTO 00000KT 3600 -SN BR OVC021 M03/M03 A3006 RMK AO2 VIS 3600V5000 SNE16SNB30 SLP204 P0000 T10261026 $

Expired Forecast.



MET'MAP, your aeronautical weather chart ! - Copyright ORBIFLY December 2007 - Disclaimer

ORBIFLY MET'MAP TEAM :

Programming & Development : Alexandra Zaïnal
Concept & original design : Baudouin d'Aumeries
Assistance for programming : Marc-Olivier Méhu
Technical & hardware support : Manuel Goepfert

Contact : metmap@orbifly.com




SOURCES & CREDITS :

   NOAA